sensor_id;sensor_type;location;lat;lon;timestamp;temperature;humidity
17791;DHT22;9019;48.132;-1.210;2022-07-29T00:01:40;17.60;99.90
17791;DHT22;9019;48.132;-1.210;2022-07-29T00:04:06;17.60;99.90
17791;DHT22;9019;48.132;-1.210;2022-07-29T00:06:33;17.50;99.90
17791;DHT22;9019;48.132;-1.210;2022-07-29T00:09:00;17.50;99.90
17791;DHT22;9019;48.132;-1.210;2022-07-29T00:11:27;17.40;99.90
17791;DHT22;9019;48.132;-1.210;2022-07-29T00:13:54;17.30;99.90
17791;DHT22;9019;48.132;-1.210;2022-07-29T00:16:23;17.30;99.90
17791;DHT22;9019;48.132;-1.210;2022-07-29T00:18:50;17.20;99.90
17791;DHT22;9019;48.132;-1.210;2022-07-29T00:21:16;17.20;99.90
17791;DHT22;9019;48.132;-1.210;2022-07-29T00:23:43;17.20;99.90
17791;DHT22;9019;48.132;-1.210;2022-07-29T00:26:10;17.20;99.90
17791;DHT22;9019;48.132;-1.210;2022-07-29T00:28:37;17.10;99.90
17791;DHT22;9019;48.132;-1.210;2022-07-29T00:31:04;17.20;99.90
17791;DHT22;9019;48.132;-1.210;2022-07-29T00:33:32;17.10;99.90
17791;DHT22;9019;48.132;-1.210;2022-07-29T00:35:59;17.10;99.90
17791;DHT22;9019;48.132;-1.210;2022-07-29T00:38:25;17.20;99.90
17791;DHT22;9019;48.132;-1.210;2022-07-29T00:40:52;17.20;99.90
17791;DHT22;9019;48.132;-1.210;2022-07-29T00:43:19;17.30;99.90
17791;DHT22;9019;48.132;-1.210;2022-07-29T00:45:46;17.30;99.90
17791;DHT22;9019;48.132;-1.210;2022-07-29T00:48:13;17.30;99.90
17791;DHT22;9019;48.132;-1.210;2022-07-29T00:50:41;17.20;99.90
17791;DHT22;9019;48.132;-1.210;2022-07-29T00:53:08;17.20;99.90
17791;DHT22;9019;48.132;-1.210;2022-07-29T00:55:36;17.10;99.90
17791;DHT22;9019;48.132;-1.210;2022-07-29T00:58:03;17.10;99.90
17791;DHT22;9019;48.132;-1.210;2022-07-29T01:00:30;17.10;99.90
17791;DHT22;9019;48.132;-1.210;2022-07-29T01:02:57;17.10;99.90
17791;DHT22;9019;48.132;-1.210;2022-07-29T01:05:26;17.10;99.90
17791;DHT22;9019;48.132;-1.210;2022-07-29T01:07:57;17.20;99.90
17791;DHT22;9019;48.132;-1.210;2022-07-29T01:10:24;17.10;99.90
17791;DHT22;9019;48.132;-1.210;2022-07-29T01:12:53;17.20;99.90
17791;DHT22;9019;48.132;-1.210;2022-07-29T01:15:21;17.20;99.90
17791;DHT22;9019;48.132;-1.210;2022-07-29T01:17:53;17.30;99.90
17791;DHT22;9019;48.132;-1.210;2022-07-29T01:20:28;17.30;99.90
17791;DHT22;9019;48.132;-1.210;2022-07-29T01:26:40;17.40;99.90
17791;DHT22;9019;48.132;-1.210;2022-07-29T01:29:16;17.40;99.90
17791;DHT22;9019;48.132;-1.210;2022-07-29T01:31:47;17.50;99.90
17791;DHT22;9019;48.132;-1.210;2022-07-29T01:34:20;17.40;99.90
17791;DHT22;9019;48.132;-1.210;2022-07-29T01:36:51;17.40;99.90
17791;DHT22;9019;48.132;-1.210;2022-07-29T01:39:27;17.40;99.90
17791;DHT22;9019;48.132;-1.210;2022-07-29T01:41:57;17.40;99.90
17791;DHT22;9019;48.132;-1.210;2022-07-29T01:44:32;17.40;99.90
17791;DHT22;9019;48.132;-1.210;2022-07-29T01:47:05;17.40;99.90
17791;DHT22;9019;48.132;-1.210;2022-07-29T01:49:37;17.40;99.90
17791;DHT22;9019;48.132;-1.210;2022-07-29T01:52:13;17.50;99.90
17791;DHT22;9019;48.132;-1.210;2022-07-29T01:54:45;17.50;99.90
17791;DHT22;9019;48.132;-1.210;2022-07-29T01:57:15;17.50;99.90
17791;DHT22;9019;48.132;-1.210;2022-07-29T01:59:46;17.40;99.90
17791;DHT22;9019;48.132;-1.210;2022-07-29T02:02:15;17.50;99.90
17791;DHT22;9019;48.132;-1.210;2022-07-29T02:04:44;17.40;99.90
17791;DHT22;9019;48.132;-1.210;2022-07-29T02:07:16;17.50;99.90
17791;DHT22;9019;48.132;-1.210;2022-07-29T02:09:44;17.50;99.90
17791;DHT22;9019;48.132;-1.210;2022-07-29T02:12:13;17.60;99.90
17791;DHT22;9019;48.132;-1.210;2022-07-29T02:14:47;17.60;99.90
17791;DHT22;9019;48.132;-1.210;2022-07-29T02:17:18;17.60;99.90
17791;DHT22;9019;48.132;-1.210;2022-07-29T02:19:47;17.60;99.90
17791;DHT22;9019;48.132;-1.210;2022-07-29T02:22:16;17.60;99.90
17791;DHT22;9019;48.132;-1.210;2022-07-29T02:24:46;17.70;99.90
17791;DHT22;9019;48.132;-1.210;2022-07-29T02:27:14;17.70;99.90
17791;DHT22;9019;48.132;-1.210;2022-07-29T02:29:42;17.70;99.90
17791;DHT22;9019;48.132;-1.210;2022-07-29T02:32:13;17.60;99.90
17791;DHT22;9019;48.132;-1.210;2022-07-29T02:34:40;17.60;99.90
17791;DHT22;9019;48.132;-1.210;2022-07-29T02:37:09;17.60;99.90
17791;DHT22;9019;48.132;-1.210;2022-07-29T02:39:37;17.60;99.90
17791;DHT22;9019;48.132;-1.210;2022-07-29T02:42:07;17.60;99.90
17791;DHT22;9019;48.132;-1.210;2022-07-29T02:44:36;17.60;99.90
17791;DHT22;9019;48.132;-1.210;2022-07-29T02:47:07;17.70;99.90
17791;DHT22;9019;48.132;-1.210;2022-07-29T02:49:42;17.70;99.90
17791;DHT22;9019;48.132;-1.210;2022-07-29T02:52:15;17.70;99.90
17791;DHT22;9019;48.132;-1.210;2022-07-29T02:54:49;17.70;99.90
17791;DHT22;9019;48.132;-1.210;2022-07-29T02:57:21;17.70;99.90
17791;DHT22;9019;48.132;-1.210;2022-07-29T02:59:51;17.70;99.90
17791;DHT22;9019;48.132;-1.210;2022-07-29T03:02:20;17.70;99.90
17791;DHT22;9019;48.132;-1.210;2022-07-29T03:04:50;17.70;99.90
17791;DHT22;9019;48.132;-1.210;2022-07-29T03:07:19;17.70;99.90
17791;DHT22;9019;48.132;-1.210;2022-07-29T03:09:47;17.70;99.90
17791;DHT22;9019;48.132;-1.210;2022-07-29T03:12:16;17.80;99.90
17791;DHT22;9019;48.132;-1.210;2022-07-29T03:14:43;17.90;99.90
17791;DHT22;9019;48.132;-1.210;2022-07-29T03:17:11;18.00;99.90
17791;DHT22;9019;48.132;-1.210;2022-07-29T03:19:39;18.10;99.90
17791;DHT22;9019;48.132;-1.210;2022-07-29T03:22:08;18.10;99.90
17791;DHT22;9019;48.132;-1.210;2022-07-29T03:24:37;18.20;99.90
17791;DHT22;9019;48.132;-1.210;2022-07-29T03:27:05;18.30;99.90
17791;DHT22;9019;48.132;-1.210;2022-07-29T03:29:32;18.30;99.90
17791;DHT22;9019;48.132;-1.210;2022-07-29T03:31:59;18.30;99.90
17791;DHT22;9019;48.132;-1.210;2022-07-29T03:34:26;18.30;99.90
17791;DHT22;9019;48.132;-1.210;2022-07-29T03:36:53;18.30;99.90
17791;DHT22;9019;48.132;-1.210;2022-07-29T03:39:24;18.30;99.90
17791;DHT22;9019;48.132;-1.210;2022-07-29T03:41:54;18.30;99.90
17791;DHT22;9019;48.132;-1.210;2022-07-29T03:44:22;18.30;99.90
17791;DHT22;9019;48.132;-1.210;2022-07-29T03:46:51;18.30;99.90
17791;DHT22;9019;48.132;-1.210;2022-07-29T03:49:20;18.40;99.90
17791;DHT22;9019;48.132;-1.210;2022-07-29T03:51:48;18.40;99.90
17791;DHT22;9019;48.132;-1.210;2022-07-29T03:54:15;18.40;99.90
17791;DHT22;9019;48.132;-1.210;2022-07-29T03:56:45;18.40;99.90
17791;DHT22;9019;48.132;-1.210;2022-07-29T03:59:14;18.40;99.90
17791;DHT22;9019;48.132;-1.210;2022-07-29T04:01:42;18.50;99.90
17791;DHT22;9019;48.132;-1.210;2022-07-29T04:04:09;18.50;99.90
17791;DHT22;9019;48.132;-1.210;2022-07-29T04:06:38;18.40;99.90
17791;DHT22;9019;48.132;-1.210;2022-07-29T04:09:06;18.50;99.90
17791;DHT22;9019;48.132;-1.210;2022-07-29T04:11:33;18.40;99.90
17791;DHT22;9019;48.132;-1.210;2022-07-29T04:14:01;18.40;99.90
17791;DHT22;9019;48.132;-1.210;2022-07-29T04:16:28;18.40;99.90
17791;DHT22;9019;48.132;-1.210;2022-07-29T04:18:55;18.30;99.90
17791;DHT22;9019;48.132;-1.210;2022-07-29T04:21:22;18.30;99.90
17791;DHT22;9019;48.132;-1.210;2022-07-29T04:23:49;18.20;99.90
17791;DHT22;9019;48.132;-1.210;2022-07-29T04:26:16;18.20;99.90
17791;DHT22;9019;48.132;-1.210;2022-07-29T04:28:43;18.20;99.90
17791;DHT22;9019;48.132;-1.210;2022-07-29T04:31:13;18.20;99.90
17791;DHT22;9019;48.132;-1.210;2022-07-29T04:33:40;18.30;99.90
17791;DHT22;9019;48.132;-1.210;2022-07-29T04:36:07;18.20;99.90
17791;DHT22;9019;48.132;-1.210;2022-07-29T04:38:34;18.20;99.90
17791;DHT22;9019;48.132;-1.210;2022-07-29T04:41:01;18.20;99.90
17791;DHT22;9019;48.132;-1.210;2022-07-29T04:43:28;18.20;99.90
17791;DHT22;9019;48.132;-1.210;2022-07-29T04:45:54;18.10;99.90
17791;DHT22;9019;48.132;-1.210;2022-07-29T04:48:23;18.10;99.90
17791;DHT22;9019;48.132;-1.210;2022-07-29T04:50:50;18.00;99.90
17791;DHT22;9019;48.132;-1.210;2022-07-29T04:53:17;18.00;99.90
17791;DHT22;9019;48.132;-1.210;2022-07-29T04:55:44;18.00;99.90
17791;DHT22;9019;48.132;-1.210;2022-07-29T04:58:11;17.90;99.90
17791;DHT22;9019;48.132;-1.210;2022-07-29T05:00:39;17.90;99.90
17791;DHT22;9019;48.132;-1.210;2022-07-29T05:03:06;17.90;99.90
17791;DHT22;9019;48.132;-1.210;2022-07-29T05:05:34;17.90;99.90
17791;DHT22;9019;48.132;-1.210;2022-07-29T05:08:01;18.00;99.90
17791;DHT22;9019;48.132;-1.210;2022-07-29T05:10:28;18.10;99.90
17791;DHT22;9019;48.132;-1.210;2022-07-29T05:12:55;18.10;99.90
17791;DHT22;9019;48.132;-1.210;2022-07-29T05:15:22;18.20;99.90
17791;DHT22;9019;48.132;-1.210;2022-07-29T05:17:49;18.30;99.90
17791;DHT22;9019;48.132;-1.210;2022-07-29T05:20:16;18.40;99.90
17791;DHT22;9019;48.132;-1.210;2022-07-29T05:22:45;18.50;99.90
17791;DHT22;9019;48.132;-1.210;2022-07-29T05:25:12;18.70;99.90
17791;DHT22;9019;48.132;-1.210;2022-07-29T05:27:39;18.70;99.90
17791;DHT22;9019;48.132;-1.210;2022-07-29T05:30:07;18.90;99.90
17791;DHT22;9019;48.132;-1.210;2022-07-29T05:32:34;18.90;99.90
17791;DHT22;9019;48.132;-1.210;2022-07-29T05:35:01;19.00;99.90
17791;DHT22;9019;48.132;-1.210;2022-07-29T05:37:27;19.10;99.90
17791;DHT22;9019;48.132;-1.210;2022-07-29T05:39:56;19.10;99.90
17791;DHT22;9019;48.132;-1.210;2022-07-29T05:42:23;19.10;99.90
17791;DHT22;9019;48.132;-1.210;2022-07-29T05:44:50;19.10;99.90
17791;DHT22;9019;48.132;-1.210;2022-07-29T05:47:17;19.00;99.90
17791;DHT22;9019;48.132;-1.210;2022-07-29T05:49:44;19.00;99.90
17791;DHT22;9019;48.132;-1.210;2022-07-29T05:52:11;19.00;99.90
17791;DHT22;9019;48.132;-1.210;2022-07-29T05:54:39;19.00;99.90
17791;DHT22;9019;48.132;-1.210;2022-07-29T05:57:07;19.00;99.90
17791;DHT22;9019;48.132;-1.210;2022-07-29T05:59:35;19.10;99.90
17791;DHT22;9019;48.132;-1.210;2022-07-29T06:02:02;19.10;99.90
17791;DHT22;9019;48.132;-1.210;2022-07-29T06:04:30;19.10;99.90
17791;DHT22;9019;48.132;-1.210;2022-07-29T06:06:57;19.10;99.90
17791;DHT22;9019;48.132;-1.210;2022-07-29T06:09:24;19.20;99.90
17791;DHT22;9019;48.132;-1.210;2022-07-29T06:11:51;19.30;99.90
17791;DHT22;9019;48.132;-1.210;2022-07-29T06:14:20;19.40;99.90
17791;DHT22;9019;48.132;-1.210;2022-07-29T06:16:47;19.40;99.90
17791;DHT22;9019;48.132;-1.210;2022-07-29T06:19:14;19.40;99.90
17791;DHT22;9019;48.132;-1.210;2022-07-29T06:21:41;19.60;99.90
17791;DHT22;9019;48.132;-1.210;2022-07-29T06:24:09;19.80;99.90
17791;DHT22;9019;48.132;-1.210;2022-07-29T06:26:37;20.00;99.90
17791;DHT22;9019;48.132;-1.210;2022-07-29T06:29:04;21.10;99.90
17791;DHT22;9019;48.132;-1.210;2022-07-29T06:31:33;21.50;99.90
17791;DHT22;9019;48.132;-1.210;2022-07-29T06:34:00;22.40;99.90
17791;DHT22;9019;48.132;-1.210;2022-07-29T06:36:27;22.40;99.90
17791;DHT22;9019;48.132;-1.210;2022-07-29T06:38:54;22.00;99.90
17791;DHT22;9019;48.132;-1.210;2022-07-29T06:41:20;22.00;99.90
17791;DHT22;9019;48.132;-1.210;2022-07-29T06:43:48;22.00;99.90
17791;DHT22;9019;48.132;-1.210;2022-07-29T06:46:17;21.70;99.90
17791;DHT22;9019;48.132;-1.210;2022-07-29T06:48:46;21.70;99.90
17791;DHT22;9019;48.132;-1.210;2022-07-29T06:51:14;21.90;99.90
17791;DHT22;9019;48.132;-1.210;2022-07-29T06:53:41;22.10;99.90
17791;DHT22;9019;48.132;-1.210;2022-07-29T06:56:09;22.20;99.90
17791;DHT22;9019;48.132;-1.210;2022-07-29T06:58:38;22.30;99.90
17791;DHT22;9019;48.132;-1.210;2022-07-29T07:01:06;22.30;99.90
17791;DHT22;9019;48.132;-1.210;2022-07-29T07:03:33;22.50;99.90
17791;DHT22;9019;48.132;-1.210;2022-07-29T07:06:01;22.80;99.90
17791;DHT22;9019;48.132;-1.210;2022-07-29T07:08:28;22.80;99.90
17791;DHT22;9019;48.132;-1.210;2022-07-29T07:10:55;22.90;99.90
17791;DHT22;9019;48.132;-1.210;2022-07-29T07:13:22;23.00;99.90
17791;DHT22;9019;48.132;-1.210;2022-07-29T07:15:50;23.10;99.90
17791;DHT22;9019;48.132;-1.210;2022-07-29T07:18:18;23.40;99.90
17791;DHT22;9019;48.132;-1.210;2022-07-29T07:20:45;24.40;99.90
17791;DHT22;9019;48.132;-1.210;2022-07-29T07:23:14;27.10;99.90
17791;DHT22;9019;48.132;-1.210;2022-07-29T07:25:41;28.90;99.90
17791;DHT22;9019;48.132;-1.210;2022-07-29T07:28:08;29.90;99.90
17791;DHT22;9019;48.132;-1.210;2022-07-29T07:30:35;30.10;99.90
17791;DHT22;9019;48.132;-1.210;2022-07-29T07:33:02;30.70;99.90
17791;DHT22;9019;48.132;-1.210;2022-07-29T07:35:30;30.80;99.90
17791;DHT22;9019;48.132;-1.210;2022-07-29T07:37:57;30.40;99.90
17791;DHT22;9019;48.132;-1.210;2022-07-29T07:40:25;30.20;92.40
17791;DHT22;9019;48.132;-1.210;2022-07-29T07:42:52;30.20;77.20
17791;DHT22;9019;48.132;-1.210;2022-07-29T07:45:19;29.20;75.20
17791;DHT22;9019;48.132;-1.210;2022-07-29T07:47:46;29.00;81.60
17791;DHT22;9019;48.132;-1.210;2022-07-29T07:50:13;30.00;59.70
17791;DHT22;9019;48.132;-1.210;2022-07-29T07:52:50;30.80;48.10
17791;DHT22;9019;48.132;-1.210;2022-07-29T07:55:18;29.90;41.70
17791;DHT22;9019;48.132;-1.210;2022-07-29T07:57:46;29.30;40.60
17791;DHT22;9019;48.132;-1.210;2022-07-29T08:00:14;29.40;52.30
17791;DHT22;9019;48.132;-1.210;2022-07-29T08:02:42;29.80;36.80
17791;DHT22;9019;48.132;-1.210;2022-07-29T08:05:10;30.40;26.10
17791;DHT22;9019;48.132;-1.210;2022-07-29T08:07:41;31.30;21.40
17791;DHT22;9019;48.132;-1.210;2022-07-29T08:10:08;31.20;13.30
17791;DHT22;9019;48.132;-1.210;2022-07-29T08:12:35;31.10;11.30
17791;DHT22;9019;48.132;-1.210;2022-07-29T08:15:05;30.90;14.70
17791;DHT22;9019;48.132;-1.210;2022-07-29T08:17:33;30.60;14.90
17791;DHT22;9019;48.132;-1.210;2022-07-29T08:20:00;30.60;5.50
17791;DHT22;9019;48.132;-1.210;2022-07-29T08:22:27;31.20;2.80
17791;DHT22;9019;48.132;-1.210;2022-07-29T08:24:54;31.00;8.90
17791;DHT22;9019;48.132;-1.210;2022-07-29T08:27:21;30.80;7.20
17791;DHT22;9019;48.132;-1.210;2022-07-29T08:29:48;30.60;5.80
17791;DHT22;9019;48.132;-1.210;2022-07-29T08:32:16;30.00;10.10
17791;DHT22;9019;48.132;-1.210;2022-07-29T08:34:43;29.40;14.80
17791;DHT22;9019;48.132;-1.210;2022-07-29T08:37:12;28.30;13.70
17791;DHT22;9019;48.132;-1.210;2022-07-29T08:39:38;27.70;28.00
17791;DHT22;9019;48.132;-1.210;2022-07-29T08:42:06;28.50;27.20
17791;DHT22;9019;48.132;-1.210;2022-07-29T08:44:35;28.70;23.10
17791;DHT22;9019;48.132;-1.210;2022-07-29T08:47:02;27.90;24.50
17791;DHT22;9019;48.132;-1.210;2022-07-29T08:49:33;27.10;38.20
17791;DHT22;9019;48.132;-1.210;2022-07-29T08:52:00;26.90;46.80
17791;DHT22;9019;48.132;-1.210;2022-07-29T08:54:27;26.60;54.60
17791;DHT22;9019;48.132;-1.210;2022-07-29T08:56:54;27.10;55.20
17791;DHT22;9019;48.132;-1.210;2022-07-29T08:59:22;26.90;50.90
17791;DHT22;9019;48.132;-1.210;2022-07-29T09:01:53;26.80;54.10
17791;DHT22;9019;48.132;-1.210;2022-07-29T09:04:21;27.30;56.60
17791;DHT22;9019;48.132;-1.210;2022-07-29T09:06:52;28.00;59.80
17791;DHT22;9019;48.132;-1.210;2022-07-29T09:09:21;28.40;52.00
17791;DHT22;9019;48.132;-1.210;2022-07-29T09:11:48;28.40;40.10
17791;DHT22;9019;48.132;-1.210;2022-07-29T09:14:15;28.40;37.90
17791;DHT22;9019;48.132;-1.210;2022-07-29T09:16:47;28.50;32.40
17791;DHT22;9019;48.132;-1.210;2022-07-29T09:19:29;28.20;28.10
17791;DHT22;9019;48.132;-1.210;2022-07-29T09:21:58;27.90;24.30
17791;DHT22;9019;48.132;-1.210;2022-07-29T09:24:42;27.50;35.60
17791;DHT22;9019;48.132;-1.210;2022-07-29T09:27:19;27.80;35.80
17791;DHT22;9019;48.132;-1.210;2022-07-29T09:29:48;28.10;31.50
17791;DHT22;9019;48.132;-1.210;2022-07-29T09:32:21;28.10;26.70
17791;DHT22;9019;48.132;-1.210;2022-07-29T09:34:48;27.40;25.40
17791;DHT22;9019;48.132;-1.210;2022-07-29T09:37:27;27.50;29.50
17791;DHT22;9019;48.132;-1.210;2022-07-29T09:39:54;27.40;25.10
17791;DHT22;9019;48.132;-1.210;2022-07-29T09:42:28;27.60;26.40
17791;DHT22;9019;48.132;-1.210;2022-07-29T09:44:57;28.10;31.30
17791;DHT22;9019;48.132;-1.210;2022-07-29T09:47:40;28.70;24.90
17791;DHT22;9019;48.132;-1.210;2022-07-29T09:50:11;29.00;17.90
17791;DHT22;9019;48.132;-1.210;2022-07-29T09:52:47;29.70;8.10
17791;DHT22;9019;48.132;-1.210;2022-07-29T09:55:16;29.90;16.40
17791;DHT22;9019;48.132;-1.210;2022-07-29T09:57:43;30.00;7.50
17791;DHT22;9019;48.132;-1.210;2022-07-29T10:00:12;29.40;6.30
17791;DHT22;9019;48.132;-1.210;2022-07-29T10:02:42;28.20;16.60
17791;DHT22;9019;48.132;-1.210;2022-07-29T10:05:19;27.80;27.00
17791;DHT22;9019;48.132;-1.210;2022-07-29T10:07:49;27.50;27.80
17791;DHT22;9019;48.132;-1.210;2022-07-29T10:10:21;27.50;22.60
17791;DHT22;9019;48.132;-1.210;2022-07-29T10:12:50;27.80;27.70
17791;DHT22;9019;48.132;-1.210;2022-07-29T10:15:17;27.70;22.30
17791;DHT22;9019;48.132;-1.210;2022-07-29T10:17:45;28.00;24.10
17791;DHT22;9019;48.132;-1.210;2022-07-29T10:20:12;27.60;20.90
17791;DHT22;9019;48.132;-1.210;2022-07-29T10:22:40;27.70;26.90
17791;DHT22;9019;48.132;-1.210;2022-07-29T10:25:09;27.60;27.40
17791;DHT22;9019;48.132;-1.210;2022-07-29T10:27:36;27.60;25.10
17791;DHT22;9019;48.132;-1.210;2022-07-29T10:30:05;28.10;21.90
17791;DHT22;9019;48.132;-1.210;2022-07-29T10:32:48;28.40;18.80
17791;DHT22;9019;48.132;-1.210;2022-07-29T10:35:40;29.40;12.90
17791;DHT22;9019;48.132;-1.210;2022-07-29T10:38:27;29.70;2.80
17791;DHT22;9019;48.132;-1.210;2022-07-29T10:41:04;29.30;11.60
17791;DHT22;9019;48.132;-1.210;2022-07-29T10:44:02;29.30;3.80
17791;DHT22;9019;48.132;-1.210;2022-07-29T10:46:35;30.30;1.40
17791;DHT22;9019;48.132;-1.210;2022-07-29T10:49:10;30.20;3.10
17791;DHT22;9019;48.132;-1.210;2022-07-29T10:52:01;30.10;2.50
17791;DHT22;9019;48.132;-1.210;2022-07-29T10:54:52;29.50;1.00
17791;DHT22;9019;48.132;-1.210;2022-07-29T10:57:23;27.90;12.50
17791;DHT22;9019;48.132;-1.210;2022-07-29T11:00:25;28.00;21.80
17791;DHT22;9019;48.132;-1.210;2022-07-29T11:02:53;29.10;17.60
17791;DHT22;9019;48.132;-1.210;2022-07-29T11:05:22;29.10;3.00
17791;DHT22;9019;48.132;-1.210;2022-07-29T11:08:23;28.50;8.40
17791;DHT22;9019;48.132;-1.210;2022-07-29T11:10:53;28.80;10.10
17791;DHT22;9019;48.132;-1.210;2022-07-29T11:13:49;27.40;22.00
17791;DHT22;9019;48.132;-1.210;2022-07-29T11:16:18;27.20;31.70
17791;DHT22;9019;48.132;-1.210;2022-07-29T11:19:20;27.20;28.70
17791;DHT22;9019;48.132;-1.210;2022-07-29T11:21:47;28.20;29.90
17791;DHT22;9019;48.132;-1.210;2022-07-29T11:24:17;27.70;24.40
17791;DHT22;9019;48.132;-1.210;2022-07-29T11:26:44;27.80;24.00
17791;DHT22;9019;48.132;-1.210;2022-07-29T11:29:20;27.80;27.70
17791;DHT22;9019;48.132;-1.210;2022-07-29T11:31:49;27.70;26.00
17791;DHT22;9019;48.132;-1.210;2022-07-29T11:34:22;28.10;23.50
17791;DHT22;9019;48.132;-1.210;2022-07-29T11:37:14;27.80;22.60
17791;DHT22;9019;48.132;-1.210;2022-07-29T11:39:42;27.70;25.10
17791;DHT22;9019;48.132;-1.210;2022-07-29T11:42:36;27.60;26.00
17791;DHT22;9019;48.132;-1.210;2022-07-29T11:45:06;27.50;35.50
17791;DHT22;9019;48.132;-1.210;2022-07-29T11:47:36;27.50;28.80
17791;DHT22;9019;48.132;-1.210;2022-07-29T11:50:07;27.50;29.10
17791;DHT22;9019;48.132;-1.210;2022-07-29T11:52:37;27.30;34.40
17791;DHT22;9019;48.132;-1.210;2022-07-29T11:55:10;27.20;37.90
17791;DHT22;9019;48.132;-1.210;2022-07-29T11:57:44;27.40;31.40
17791;DHT22;9019;48.132;-1.210;2022-07-29T12:00:28;27.60;23.10
17791;DHT22;9019;48.132;-1.210;2022-07-29T12:02:56;27.10;28.60
17791;DHT22;9019;48.132;-1.210;2022-07-29T12:05:33;27.40;33.10
17791;DHT22;9019;48.132;-1.210;2022-07-29T12:08:09;27.30;29.00
17791;DHT22;9019;48.132;-1.210;2022-07-29T12:10:36;27.00;30.70
17791;DHT22;9019;48.132;-1.210;2022-07-29T12:13:04;27.60;27.70
17791;DHT22;9019;48.132;-1.210;2022-07-29T12:15:32;27.80;27.90
17791;DHT22;9019;48.132;-1.210;2022-07-29T12:18:10;28.30;21.60
17791;DHT22;9019;48.132;-1.210;2022-07-29T12:20:37;28.30;16.70
17791;DHT22;9019;48.132;-1.210;2022-07-29T12:23:05;28.00;21.70
17791;DHT22;9019;48.132;-1.210;2022-07-29T12:25:34;27.80;18.10
17791;DHT22;9019;48.132;-1.210;2022-07-29T12:28:03;28.30;19.20
17791;DHT22;9019;48.132;-1.210;2022-07-29T12:30:37;28.80;14.90
17791;DHT22;9019;48.132;-1.210;2022-07-29T12:33:17;28.70;6.70
17791;DHT22;9019;48.132;-1.210;2022-07-29T12:35:46;28.90;4.40
17791;DHT22;9019;48.132;-1.210;2022-07-29T12:38:13;29.30;4.50
17791;DHT22;9019;48.132;-1.210;2022-07-29T12:40:42;29.80;1.00
17791;DHT22;9019;48.132;-1.210;2022-07-29T12:43:11;30.00;1.00
17791;DHT22;9019;48.132;-1.210;2022-07-29T12:45:41;29.50;1.00
17791;DHT22;9019;48.132;-1.210;2022-07-29T12:48:09;29.40;3.60
17791;DHT22;9019;48.132;-1.210;2022-07-29T12:50:36;28.80;3.20
17791;DHT22;9019;48.132;-1.210;2022-07-29T12:53:11;30.00;3.50
17791;DHT22;9019;48.132;-1.210;2022-07-29T12:55:42;29.80;1.00
17791;DHT22;9019;48.132;-1.210;2022-07-29T12:58:10;30.60;1.00
17791;DHT22;9019;48.132;-1.210;2022-07-29T13:00:37;31.30;1.00
17791;DHT22;9019;48.132;-1.210;2022-07-29T13:03:06;31.90;1.00
17791;DHT22;9019;48.132;-1.210;2022-07-29T13:05:40;32.70;1.00
17791;DHT22;9019;48.132;-1.210;2022-07-29T13:08:14;33.60;1.00
17791;DHT22;9019;48.132;-1.210;2022-07-29T13:10:42;33.20;1.00
17791;DHT22;9019;48.132;-1.210;2022-07-29T13:13:11;32.20;1.00
17791;DHT22;9019;48.132;-1.210;2022-07-29T13:15:39;33.30;1.00
17791;DHT22;9019;48.132;-1.210;2022-07-29T13:18:27;34.60;1.00
17791;DHT22;9019;48.132;-1.210;2022-07-29T13:20:54;35.00;1.00
17791;DHT22;9019;48.132;-1.210;2022-07-29T13:23:21;33.70;1.00
17791;DHT22;9019;48.132;-1.210;2022-07-29T13:25:48;33.70;1.00
17791;DHT22;9019;48.132;-1.210;2022-07-29T13:28:15;33.70;1.00
17791;DHT22;9019;48.132;-1.210;2022-07-29T13:30:42;34.70;1.00
17791;DHT22;9019;48.132;-1.210;2022-07-29T13:33:09;36.60;1.00
17791;DHT22;9019;48.132;-1.210;2022-07-29T13:35:38;36.70;1.00
17791;DHT22;9019;48.132;-1.210;2022-07-29T13:38:05;35.70;1.00
17791;DHT22;9019;48.132;-1.210;2022-07-29T13:40:32;36.40;1.00
17791;DHT22;9019;48.132;-1.210;2022-07-29T13:43:00;34.50;1.00
17791;DHT22;9019;48.132;-1.210;2022-07-29T13:45:27;32.50;1.00
17791;DHT22;9019;48.132;-1.210;2022-07-29T13:47:54;31.90;1.00
17791;DHT22;9019;48.132;-1.210;2022-07-29T13:50:22;33.20;1.00
17791;DHT22;9019;48.132;-1.210;2022-07-29T13:52:50;33.40;1.00
17791;DHT22;9019;48.132;-1.210;2022-07-29T13:55:17;33.70;1.00
17791;DHT22;9019;48.132;-1.210;2022-07-29T13:57:44;33.10;1.00
17791;DHT22;9019;48.132;-1.210;2022-07-29T14:00:12;32.60;1.00
17791;DHT22;9019;48.132;-1.210;2022-07-29T14:02:39;31.00;1.00
17791;DHT22;9019;48.132;-1.210;2022-07-29T14:05:07;31.90;1.00
17791;DHT22;9019;48.132;-1.210;2022-07-29T14:07:35;33.70;1.00
17791;DHT22;9019;48.132;-1.210;2022-07-29T14:10:05;35.00;1.00
17791;DHT22;9019;48.132;-1.210;2022-07-29T14:12:32;34.50;1.00
17791;DHT22;9019;48.132;-1.210;2022-07-29T14:14:59;32.00;1.00
17791;DHT22;9019;48.132;-1.210;2022-07-29T14:17:26;31.50;1.00
17791;DHT22;9019;48.132;-1.210;2022-07-29T14:19:53;32.80;1.00
17791;DHT22;9019;48.132;-1.210;2022-07-29T14:22:20;32.00;1.00
17791;DHT22;9019;48.132;-1.210;2022-07-29T14:24:46;33.20;1.00
17791;DHT22;9019;48.132;-1.210;2022-07-29T14:27:15;34.40;1.00
17791;DHT22;9019;48.132;-1.210;2022-07-29T14:29:42;35.30;1.00
17791;DHT22;9019;48.132;-1.210;2022-07-29T14:32:09;36.10;1.00
17791;DHT22;9019;48.132;-1.210;2022-07-29T14:34:37;35.20;1.00
17791;DHT22;9019;48.132;-1.210;2022-07-29T14:37:04;34.80;1.00
17791;DHT22;9019;48.132;-1.210;2022-07-29T14:39:32;33.30;1.00
17791;DHT22;9019;48.132;-1.210;2022-07-29T14:41:59;32.80;1.00
17791;DHT22;9019;48.132;-1.210;2022-07-29T14:44:27;33.40;1.00
17791;DHT22;9019;48.132;-1.210;2022-07-29T14:46:56;34.10;1.00
17791;DHT22;9019;48.132;-1.210;2022-07-29T14:49:24;32.50;1.00
17791;DHT22;9019;48.132;-1.210;2022-07-29T14:51:51;31.20;1.00
17791;DHT22;9019;48.132;-1.210;2022-07-29T14:54:18;31.90;1.00
17791;DHT22;9019;48.132;-1.210;2022-07-29T14:56:45;34.00;1.00
17791;DHT22;9019;48.132;-1.210;2022-07-29T14:59:14;35.40;1.00
17791;DHT22;9019;48.132;-1.210;2022-07-29T15:01:43;35.70;1.00
17791;DHT22;9019;48.132;-1.210;2022-07-29T15:04:10;35.70;1.00
17791;DHT22;9019;48.132;-1.210;2022-07-29T15:06:36;36.20;1.00
17791;DHT22;9019;48.132;-1.210;2022-07-29T15:09:03;36.70;1.00
17791;DHT22;9019;48.132;-1.210;2022-07-29T15:11:30;36.50;1.00
17791;DHT22;9019;48.132;-1.210;2022-07-29T15:13:57;35.10;1.00
17791;DHT22;9019;48.132;-1.210;2022-07-29T15:16:24;32.50;1.00
17791;DHT22;9019;48.132;-1.210;2022-07-29T15:18:52;31.90;1.00
17791;DHT22;9019;48.132;-1.210;2022-07-29T15:21:19;31.90;1.00
17791;DHT22;9019;48.132;-1.210;2022-07-29T15:23:46;31.90;1.00
17791;DHT22;9019;48.132;-1.210;2022-07-29T15:26:13;31.60;1.00
17791;DHT22;9019;48.132;-1.210;2022-07-29T15:28:40;32.00;1.00
17791;DHT22;9019;48.132;-1.210;2022-07-29T15:31:07;32.50;1.00
17791;DHT22;9019;48.132;-1.210;2022-07-29T15:33:35;33.00;1.00
17791;DHT22;9019;48.132;-1.210;2022-07-29T15:36:03;33.20;1.00
17791;DHT22;9019;48.132;-1.210;2022-07-29T15:38:31;33.10;1.00
17791;DHT22;9019;48.132;-1.210;2022-07-29T15:40:58;32.60;1.00
17791;DHT22;9019;48.132;-1.210;2022-07-29T15:43:25;32.80;1.00
17791;DHT22;9019;48.132;-1.210;2022-07-29T15:45:52;32.70;1.00
17791;DHT22;9019;48.132;-1.210;2022-07-29T15:48:37;32.00;1.00
17791;DHT22;9019;48.132;-1.210;2022-07-29T15:51:06;31.80;1.00
17791;DHT22;9019;48.132;-1.210;2022-07-29T15:53:33;31.60;1.00